Time;durP1;ratioP1;P1;durP2;ratioP2;P2;SDS_P1;SDS_P2;PMS_P1;PMS_P2;Temp;Humidity;BMP_temperature;BMP_pressure;BME280_temperature;BME280_humidity;BME280_pressure;Samples;Min_cycle;Max_cycle;Signal;HPM_P1;HPM_P2
2022/11/07 00:02:23;;;;;;;45.07;28.23;;;7.70;99.90;;;;;;5054470;28;20758;-79
2022/11/07 00:05:13;;;;;;;45.63;26.30;;;7.70;99.90;;;;;;5059166;28;20234;-78
2022/11/07 00:08:02;;;;;;;43.43;26.87;;;7.70;99.90;;;;;;5056561;28;20240;-78
2022/11/07 00:10:54;;;;;;;40.83;25.40;;;7.60;99.90;;;;;;5038647;28;20337;-77
2022/11/07 00:13:43;;;;;;;45.97;26.87;;;7.40;99.90;;;;;;5059940;28;20250;-78
2022/11/07 00:16:33;;;;;;;45.50;26.97;;;7.60;99.90;;;;;;5056785;28;20244;-79
2022/11/07 00:19:23;;;;;;;46.73;27.83;;;7.60;99.90;;;;;;5059137;28;20606;-77
2022/11/07 00:22:13;;;;;;;43.83;27.67;;;7.40;99.90;;;;;;5042097;28;20235;-78
2022/11/07 00:25:01;;;;;;;42.83;27.30;;;7.50;99.90;;;;;;5036201;28;20254;-78
2022/11/07 00:27:50;;;;;;;45.27;27.27;;;7.60;99.90;;;;;;5064139;28;20231;-78
2022/11/07 00:30:39;;;;;;;43.83;27.87;;;7.70;99.90;;;;;;5041938;28;20251;-78
2022/11/07 00:33:28;;;;;;;40.80;26.40;;;7.60;99.90;;;;;;5050273;28;20257;-79
2022/11/07 00:36:18;;;;;;;40.83;27.37;;;7.40;99.90;;;;;;5060717;28;20707;-78
2022/11/07 00:39:09;;;;;;;47.87;28.00;;;7.30;99.90;;;;;;5062027;28;20708;-79
2022/11/07 00:41:58;;;;;;;38.70;26.00;;;7.20;99.90;;;;;;5046283;28;20304;-79
2022/11/07 00:44:47;;;;;;;44.30;27.37;;;7.40;99.90;;;;;;5046344;28;20230;-77
2022/11/07 00:47:36;;;;;;;42.67;26.50;;;7.50;99.90;;;;;;5057008;28;20229;-78
2022/11/07 00:50:25;;;;;;;40.83;26.60;;;7.30;99.90;;;;;;5047830;28;20216;-77
2022/11/07 00:53:14;;;;;;;41.30;25.93;;;7.30;99.90;;;;;;5059198;28;20228;-76
2022/11/07 00:56:07;;;;;;;43.60;26.73;;;7.40;99.90;;;;;;5059107;28;20231;-76
2022/11/07 00:58:57;;;;;;;44.87;27.30;;;7.20;99.90;;;;;;5059762;28;20405;-75
2022/11/07 01:01:46;;;;;;;46.17;27.87;;;7.00;99.90;;;;;;5061453;28;20232;-76
2022/11/07 01:07:40;;;;;;;41.83;27.20;;;6.90;99.90;;;;;;5042232;28;20231;-77
2022/11/07 01:10:29;;;;;;;45.57;28.83;;;7.10;99.90;;;;;;5059906;28;20222;-78
2022/11/07 01:13:19;;;;;;;47.07;28.57;;;7.00;99.90;;;;;;5047963;28;20230;-77
2022/11/07 01:16:09;;;;;;;45.77;29.47;;;6.90;99.90;;;;;;5057362;28;20221;-76
2022/11/07 01:18:58;;;;;;;47.87;29.30;;;7.00;99.90;;;;;;5060766;28;20234;-78
2022/11/07 01:21:47;;;;;;;45.70;28.87;;;7.10;99.90;;;;;;5033273;28;20356;-77
2022/11/07 01:24:36;;;;;;;48.80;29.03;;;7.20;99.90;;;;;;5044219;28;20217;-76
2022/11/07 01:27:25;;;;;;;43.37;27.83;;;7.20;99.90;;;;;;5054670;28;20240;-76
2022/11/07 01:30:15;;;;;;;46.80;29.83;;;7.40;99.90;;;;;;5047861;28;20224;-76
2022/11/07 01:33:04;;;;;;;46.40;27.97;;;7.40;99.90;;;;;;5059892;28;20220;-76
2022/11/07 01:35:52;;;;;;;44.90;26.40;;;7.30;99.90;;;;;;5064467;28;20223;-76
2022/11/07 01:38:43;;;;;;;44.47;27.13;;;7.40;99.90;;;;;;5041367;28;20718;-77
2022/11/07 01:41:33;;;;;;;46.40;28.03;;;7.30;99.90;;;;;;5061305;28;20230;-77
2022/11/07 01:44:52;;;;;;;45.57;28.23;;;7.20;99.90;;;;;;5057984;28;20983;-78
2022/11/07 01:47:42;;;;;;;47.53;28.47;;;7.20;99.90;;;;;;5033077;28;20600;-77
2022/11/07 01:50:31;;;;;;;46.83;29.57;;;7.30;99.90;;;;;;5053885;28;20235;-77
2022/11/07 01:53:20;;;;;;;44.27;29.57;;;7.40;99.90;;;;;;5053023;28;20223;-77
2022/11/07 01:56:13;;;;;;;48.07;29.93;;;7.50;99.90;;;;;;5044992;28;20232;-77
2022/11/07 01:59:03;;;;;;;47.07;30.20;;;7.40;99.90;;;;;;5058828;28;20232;-76
2022/11/07 02:01:52;;;;;;;49.70;30.20;;;7.60;99.90;;;;;;5047395;28;20222;-77
2022/11/07 02:04:42;;;;;;;46.63;29.10;;;7.70;99.90;;;;;;5056391;28;20227;-76
2022/11/07 02:07:32;;;;;;;52.27;31.50;;;7.70;99.90;;;;;;5057345;28;20249;-77
2022/11/07 02:10:21;;;;;;;49.73;31.50;;;7.70;99.90;;;;;;5046303;28;20217;-76
2022/11/07 02:13:14;;;;;;;46.77;31.10;;;7.70;99.90;;;;;;5041059;28;20218;-76
2022/11/07 02:16:05;;;;;;;46.93;30.53;;;7.70;99.90;;;;;;5053399;28;20229;-77
2022/11/07 02:18:54;;;;;;;53.37;31.53;;;7.70;99.90;;;;;;5055403;28;20682;-77
2022/11/07 02:21:51;;;;;;;49.30;30.93;;;7.70;99.90;;;;;;5062756;28;20250;-77
2022/11/07 02:24:42;;;;;;;49.33;30.90;;;7.70;99.90;;;;;;5059437;28;20216;-77
2022/11/07 02:27:33;;;;;;;48.30;31.27;;;7.80;99.90;;;;;;5055061;28;20236;-76
2022/11/07 02:30:24;;;;;;;47.43;30.07;;;7.70;99.90;;;;;;5058014;28;20699;-77
2022/11/07 02:33:20;;;;;;;49.87;30.33;;;7.70;99.90;;;;;;5055606;28;20250;-78
2022/11/07 02:36:14;;;;;;;45.87;29.70;;;7.80;99.90;;;;;;5049989;28;20232;-77
2022/11/07 02:39:03;;;;;;;42.37;27.37;;;7.80;99.90;;;;;;5055743;28;20220;-76
2022/11/07 02:41:54;;;;;;;44.90;27.90;;;7.90;99.90;;;;;;5043543;28;20219;-76
2022/11/07 02:44:43;;;;;;;45.60;27.03;;;7.80;99.90;;;;;;5057960;28;20227;-76
2022/11/07 02:47:32;;;;;;;39.43;26.60;;;7.80;99.90;;;;;;5054170;28;20732;-76
2022/11/07 02:50:21;;;;;;;45.00;27.50;;;7.80;99.90;;;;;;5056988;28;20221;-76
2022/11/07 02:53:10;;;;;;;41.93;28.63;;;7.60;99.90;;;;;;5056935;28;20227;-74
2022/11/07 02:55:59;;;;;;;44.33;27.77;;;7.70;99.90;;;;;;5059363;28;20239;-75
2022/11/07 02:58:51;;;;;;;49.47;26.83;;;7.50;99.90;;;;;;5038317;28;20232;-76
2022/11/07 03:01:39;;;;;;;41.37;27.80;;;7.60;99.90;;;;;;5053756;28;20246;-74
2022/11/07 03:04:28;;;;;;;42.03;26.23;;;7.50;99.90;;;;;;5043027;28;20937;-74
2022/11/07 03:07:17;;;;;;;43.50;26.03;;;7.70;99.90;;;;;;5059904;28;20220;-75
2022/11/07 03:10:07;;;;;;;43.63;27.30;;;7.80;99.90;;;;;;5057737;28;20220;-75
2022/11/07 03:12:56;;;;;;;44.33;27.50;;;7.80;99.90;;;;;;5038359;28;20215;-75
2022/11/07 03:15:46;;;;;;;42.20;27.40;;;7.70;99.90;;;;;;5040106;28;20551;-76
2022/11/07 03:18:35;;;;;;;40.00;26.20;;;7.70;99.90;;;;;;5057036;28;20239;-76
2022/11/07 03:21:24;;;;;;;41.97;26.60;;;7.70;99.90;;;;;;5057645;28;20219;-76
2022/11/07 03:24:12;;;;;;;42.80;27.07;;;7.70;99.90;;;;;;5041554;28;20231;-75
2022/11/07 03:27:01;;;;;;;42.13;26.93;;;7.70;99.90;;;;;;5058569;28;20233;-76
2022/11/07 03:29:50;;;;;;;41.53;27.42;;;7.80;99.90;;;;;;5055304;28;20226;-76
2022/11/07 03:32:40;;;;;;;42.90;27.87;;;7.80;99.90;;;;;;5038146;28;20239;-75
2022/11/07 03:35:29;;;;;;;46.07;28.40;;;7.80;99.90;;;;;;5038380;28;20228;-76
2022/11/07 03:38:18;;;;;;;46.53;28.70;;;7.80;99.90;;;;;;5040265;28;20228;-77
2022/11/07 03:41:06;;;;;;;46.93;28.57;;;7.70;99.90;;;;;;5061426;28;20237;-78
2022/11/07 03:43:55;;;;;;;44.43;27.80;;;7.90;99.90;;;;;;5047226;28;20699;-79
2022/11/07 03:46:44;;;;;;;45.10;28.40;;;7.90;99.90;;;;;;5042735;28;20230;-78
2022/11/07 03:49:34;;;;;;;44.20;28.97;;;8.00;99.90;;;;;;5061071;28;20239;-76
2022/11/07 03:52:23;;;;;;;48.17;28.87;;;8.00;99.90;;;;;;5056802;28;20220;-76
2022/11/07 03:55:14;;;;;;;47.50;29.10;;;8.00;99.90;;;;;;5039735;28;20591;-76
2022/11/07 03:58:03;;;;;;;45.87;29.33;;;8.00;99.90;;;;;;5044239;28;20224;-77
2022/11/07 04:00:52;;;;;;;45.93;29.57;;;8.00;99.90;;;;;;5060887;28;20229;-76
2022/11/07 04:03:41;;;;;;;43.42;28.10;;;8.00;99.90;;;;;;5046023;28;20226;-76
2022/11/07 04:06:32;;;;;;;46.13;29.40;;;7.90;99.90;;;;;;5061448;28;20245;-76
2022/11/07 04:09:20;;;;;;;47.30;29.17;;;8.00;99.90;;;;;;5064722;28;21184;-77
2022/11/07 04:18:28;;;;;;;51.15;29.50;;;8.10;99.90;;;;;;5014911;28;20224;-75
2022/11/07 04:21:16;;;;;;;51.17;29.77;;;8.00;99.90;;;;;;5061115;28;20231;-75
2022/11/07 04:24:07;;;;;;;50.23;29.90;;;8.10;99.90;;;;;;5044776;28;20652;-74
2022/11/07 04:30:17;;;;;;;52.23;31.43;;;8.10;99.90;;;;;;5046999;28;20674;-74
2022/11/07 04:33:07;;;;;;;52.57;31.90;;;8.30;99.90;;;;;;5060940;28;20579;-74
2022/11/07 04:35:55;;;;;;;57.57;33.83;;;8.20;99.90;;;;;;5062382;28;20680;-77
2022/11/07 04:38:45;;;;;;;58.00;33.60;;;8.30;99.90;;;;;;5055723;28;20294;-75
2022/11/07 04:41:35;;;;;;;65.13;35.63;;;8.40;99.90;;;;;;5057274;28;20241;-78
2022/11/07 04:44:23;;;;;;;64.57;34.80;;;8.30;99.90;;;;;;5045286;28;20729;-79
2022/11/07 04:47:12;;;;;;;65.70;35.13;;;8.40;99.90;;;;;;5044586;28;20220;-75
2022/11/07 04:50:01;;;;;;;61.90;35.28;;;8.30;99.90;;;;;;5060915;28;20768;-76
2022/11/07 04:52:50;;;;;;;63.08;35.35;;;8.40;99.90;;;;;;5058873;28;20228;-76
2022/11/07 04:55:38;;;;;;;61.60;34.87;;;8.40;99.90;;;;;;5040838;28;20667;-76
2022/11/07 04:58:29;;;;;;;61.40;35.88;;;8.50;99.90;;;;;;5042975;28;20708;-76
2022/11/07 05:01:17;;;;;;;58.87;34.63;;;8.60;99.90;;;;;;5057976;28;20215;-76
2022/11/07 05:04:06;;;;;;;57.67;35.13;;;8.60;99.90;;;;;;5048076;28;20358;-76
2022/11/07 05:06:56;;;;;;;61.72;35.53;;;8.60;99.90;;;;;;5056716;28;20228;-77
2022/11/07 05:09:44;;;;;;;67.53;35.30;;;8.60;99.90;;;;;;5052950;28;20920;-76
2022/11/07 05:12:33;;;;;;;64.67;35.27;;;8.60;99.90;;;;;;5055268;28;20571;-76
2022/11/07 05:15:27;;;;;;;61.93;34.70;;;8.70;99.90;;;;;;5045219;28;20223;-76
2022/11/07 05:18:19;;;;;;;64.17;36.60;;;8.70;99.90;;;;;;5059357;28;20247;-76
2022/11/07 05:21:08;;;;;;;61.72;34.88;;;8.70;99.90;;;;;;5058434;28;20686;-76
2022/11/07 05:23:57;;;;;;;66.03;35.17;;;8.60;99.90;;;;;;5061562;28;20226;-77
2022/11/07 05:26:46;;;;;;;55.67;33.77;;;8.70;99.90;;;;;;5045575;28;20238;-77
2022/11/07 05:29:34;;;;;;;66.13;35.95;;;8.80;99.90;;;;;;5058559;28;20239;-77
2022/11/07 05:32:25;;;;;;;62.53;35.17;;;8.80;99.90;;;;;;5060243;28;20216;-77
2022/11/07 05:35:14;;;;;;;59.40;34.50;;;8.80;99.90;;;;;;5040934;28;20228;-76
2022/11/07 05:38:02;;;;;;;61.88;34.92;;;8.80;99.90;;;;;;5061531;28;20235;-76
2022/11/07 05:40:51;;;;;;;73.40;34.88;;;8.80;99.90;;;;;;5058586;28;20232;-76
2022/11/07 05:43:40;;;;;;;61.55;34.78;;;8.90;99.90;;;;;;5046059;28;20224;-76
2022/11/07 05:46:29;;;;;;;63.38;34.38;;;8.80;99.90;;;;;;5044200;28;20224;-76
2022/11/07 05:49:19;;;;;;;56.95;33.75;;;8.90;99.90;;;;;;5040310;28;20258;-77
2022/11/07 05:52:08;;;;;;;65.32;33.97;;;9.00;99.90;;;;;;5055954;28;20250;-76
2022/11/07 05:54:57;;;;;;;62.83;34.03;;;9.00;99.90;;;;;;5042471;28;20223;-75
2022/11/07 05:57:45;;;;;;;63.05;35.85;;;9.00;99.90;;;;;;5049384;28;20239;-76
2022/11/07 06:00:34;;;;;;;59.47;33.47;;;9.00;99.90;;;;;;5058869;28;20696;-78
2022/11/07 06:03:23;;;;;;;60.90;33.65;;;9.10;99.90;;;;;;5045428;28;20224;-76
2022/11/07 06:06:13;;;;;;;58.10;32.67;;;9.10;99.90;;;;;;5057254;28;20231;-76
2022/11/07 06:09:02;;;;;;;63.75;32.97;;;9.10;99.90;;;;;;5060440;28;20212;-74
2022/11/07 06:11:50;;;;;;;56.30;32.15;;;9.10;99.90;;;;;;5040255;28;20223;-75
2022/11/07 06:14:39;;;;;;;60.70;33.20;;;9.20;99.90;;;;;;5049485;28;20243;-76
2022/11/07 06:17:28;;;;;;;56.83;31.45;;;9.20;99.90;;;;;;5039816;28;20220;-75
2022/11/07 06:20:16;;;;;;;59.67;32.33;;;9.30;99.90;;;;;;5041843;28;20223;-76
2022/11/07 06:23:07;;;;;;;59.53;32.15;;;9.40;99.90;;;;;;5055634;28;20714;-76
2022/11/07 06:25:56;;;;;;;52.13;30.95;;;9.40;99.90;;;;;;5057665;28;20216;-76
2022/11/07 06:28:44;;;;;;;54.65;30.83;;;9.40;99.90;;;;;;5045593;28;21043;-76
2022/11/07 06:31:33;;;;;;;51.67;29.65;;;9.40;99.90;;;;;;5054249;28;20225;-77
2022/11/07 06:34:22;;;;;;;58.10;30.10;;;9.50;99.90;;;;;;5043437;28;20223;-75
2022/11/07 06:37:10;;;;;;;48.78;29.90;;;9.50;99.90;;;;;;5041690;28;20228;-76
2022/11/07 06:40:01;;;;;;;54.13;29.75;;;9.50;99.90;;;;;;5056571;28;20224;-76
2022/11/07 06:42:49;;;;;;;49.33;28.33;;;9.60;99.90;;;;;;5030696;28;20703;-76
2022/11/07 06:45:39;;;;;;;46.72;29.33;;;9.60;99.90;;;;;;5038949;28;20588;-76
2022/11/07 06:48:27;;;;;;;49.78;28.33;;;9.60;99.90;;;;;;5034294;28;20229;-76
2022/11/07 06:51:17;;;;;;;46.55;28.52;;;9.60;99.90;;;;;;5041278;28;20255;-78
2022/11/07 06:54:06;;;;;;;46.65;26.98;;;9.60;99.90;;;;;;5043709;28;20224;-76
2022/11/07 06:56:56;;;;;;;49.88;26.58;;;9.70;99.90;;;;;;5033528;28;20715;-77
2022/11/07 06:59:44;;;;;;;47.15;28.10;;;9.70;99.90;;;;;;5058685;28;20571;-76
2022/11/07 07:02:39;;;;;;;47.33;26.77;;;9.80;99.90;;;;;;5057357;28;20220;-78
2022/11/07 07:05:48;;;;;;;42.63;26.08;;;9.80;99.90;;;;;;5038662;28;20232;-79
2022/11/07 07:08:36;;;;;;;41.15;26.00;;;9.90;99.90;;;;;;5060721;28;20220;-76
2022/11/07 07:11:25;;;;;;;40.90;25.20;;;9.90;99.90;;;;;;5055433;28;20924;-78
2022/11/07 07:14:15;;;;;;;44.03;26.35;;;10.00;99.90;;;;;;5035155;28;20252;-75
2022/11/07 07:17:04;;;;;;;41.40;26.73;;;10.00;99.90;;;;;;5041535;28;20220;-78
2022/11/07 07:19:52;;;;;;;42.38;26.98;;;10.00;99.90;;;;;;5072765;28;20341;-78
2022/11/07 07:22:42;;;;;;;42.88;25.40;;;10.00;99.90;;;;;;5076453;28;20229;-74
2022/11/07 07:25:30;;;;;;;43.75;25.73;;;10.20;99.90;;;;;;5059678;28;20647;-76
2022/11/07 07:28:19;;;;;;;42.60;25.20;;;10.20;99.90;;;;;;5058683;28;20230;-74
2022/11/07 07:31:19;;;;;;;41.67;25.67;;;10.10;99.90;;;;;;5059130;28;20232;-75
2022/11/07 07:34:08;;;;;;;39.72;24.73;;;10.20;99.90;;;;;;5059274;28;20216;-77
2022/11/07 07:36:56;;;;;;;42.85;25.80;;;10.10;99.90;;;;;;5055327;28;20218;-78
2022/11/07 07:39:45;;;;;;;42.78;25.80;;;10.10;99.90;;;;;;5060596;28;20219;-76
2022/11/07 07:42:34;;;;;;;43.28;25.75;;;10.10;99.90;;;;;;5051105;28;20704;-75
2022/11/07 07:45:22;;;;;;;39.92;24.63;;;10.20;99.90;;;;;;5063427;28;20224;-76
2022/11/07 07:48:13;;;;;;;39.58;25.15;;;10.20;99.90;;;;;;5062297;28;20734;-78
2022/11/07 07:51:01;;;;;;;41.40;24.40;;;10.30;99.90;;;;;;5058880;28;20235;-77
2022/11/07 07:53:50;;;;;;;40.58;24.77;;;10.40;99.90;;;;;;5041533;28;20227;-75
2022/11/07 07:56:39;;;;;;;40.38;23.88;;;10.30;99.90;;;;;;5060277;28;20224;-75
2022/11/07 07:59:28;;;;;;;41.28;25.30;;;10.40;99.90;;;;;;5068871;28;20306;-75
2022/11/07 08:02:16;;;;;;;39.50;24.73;;;10.40;99.90;;;;;;5059083;28;20224;-75
2022/11/07 08:05:07;;;;;;;39.53;24.45;;;10.30;99.90;;;;;;5064234;28;20714;-75
2022/11/07 08:07:56;;;;;;;38.17;25.00;;;10.30;99.90;;;;;;5085569;28;20272;-76
2022/11/07 08:10:52;;;;;;;35.08;23.70;;;10.40;99.90;;;;;;5067412;28;20706;-74
2022/11/07 08:13:41;;;;;;;37.42;22.90;;;10.50;99.90;;;;;;5081322;28;20211;-76
2022/11/07 08:16:29;;;;;;;37.83;24.35;;;10.60;99.90;;;;;;5063418;28;20231;-75
2022/11/07 08:19:18;;;;;;;36.38;24.42;;;10.70;99.90;;;;;;5069414;28;20670;-75
2022/11/07 08:22:10;;;;;;;36.20;23.85;;;10.60;99.90;;;;;;5070181;28;20219;-75
2022/11/07 08:24:58;;;;;;;34.97;23.45;;;10.70;99.90;;;;;;5062214;28;20236;-76
2022/11/07 08:27:47;;;;;;;35.58;24.73;;;10.70;99.90;;;;;;5065099;28;20228;-76
2022/11/07 08:30:36;;;;;;;39.08;24.50;;;10.80;99.90;;;;;;5082406;28;20223;-77
2022/11/07 08:33:25;;;;;;;33.33;22.85;;;10.80;99.90;;;;;;5082524;28;20732;-78
2022/11/07 08:36:14;;;;;;;35.78;23.55;;;10.90;99.90;;;;;;5073751;28;22356;-76
2022/11/07 08:39:04;;;;;;;35.55;23.45;;;10.80;99.90;;;;;;5069189;28;20225;-77
2022/11/07 08:41:53;;;;;;;40.03;23.45;;;10.90;99.90;;;;;;5067165;28;20223;-78
2022/11/07 08:44:41;;;;;;;33.90;23.10;;;10.90;99.90;;;;;;5067165;28;20219;-76
2022/11/07 08:47:30;;;;;;;39.33;23.58;;;11.00;99.90;;;;;;5063717;28;20231;-76
2022/11/07 08:50:23;;;;;;;37.25;24.10;;;11.20;99.90;;;;;;5082466;28;20207;-78
2022/11/07 08:53:12;;;;;;;36.22;22.42;;;11.30;99.90;;;;;;5067332;28;20216;-77
2022/11/07 08:56:04;;;;;;;34.65;22.70;;;11.30;99.90;;;;;;5079616;28;20227;-78
2022/11/07 08:58:53;;;;;;;31.30;21.50;;;11.40;99.90;;;;;;5064467;28;20299;-78
2022/11/07 09:01:42;;;;;;;30.25;21.10;;;11.40;99.90;;;;;;5080469;28;20223;-78
2022/11/07 09:04:50;;;;;;;31.73;21.70;;;11.40;99.90;;;;;;5087870;27;20248;-78
2022/11/07 09:07:39;;;;;;;35.13;23.08;;;11.50;99.90;;;;;;5059431;28;20216;-78
2022/11/07 09:10:28;;;;;;;31.17;21.25;;;11.60;99.90;;;;;;5044029;28;20439;-74
2022/11/07 09:13:19;;;;;;;33.00;21.67;;;11.60;99.90;;;;;;5060775;28;20212;-77
2022/11/07 09:16:08;;;;;;;33.13;21.00;;;11.60;99.90;;;;;;5061018;28;20259;-76
2022/11/07 09:18:57;;;;;;;34.40;21.52;;;11.60;99.90;;;;;;5059342;28;20363;-76
2022/11/07 09:21:47;;;;;;;29.90;20.13;;;11.80;99.90;;;;;;5055456;28;21028;-75
2022/11/07 09:24:36;;;;;;;30.73;20.13;;;11.90;99.90;;;;;;5061553;28;20583;-76
2022/11/07 09:27:25;;;;;;;32.40;19.70;;;11.90;99.90;;;;;;5060081;28;20220;-76
2022/11/07 09:30:16;;;;;;;27.67;19.52;;;12.10;99.90;;;;;;5056749;28;20274;-77
2022/11/07 09:33:04;;;;;;;27.67;19.50;;;12.20;99.90;;;;;;5058704;28;20231;-78
2022/11/07 09:35:53;;;;;;;31.63;20.90;;;12.10;99.90;;;;;;5061348;28;20746;-76
2022/11/07 09:38:42;;;;;;;28.08;18.77;;;12.30;99.90;;;;;;5056957;28;20220;-78
2022/11/07 09:41:44;;;;;;;28.75;19.80;;;12.20;99.90;;;;;;5060861;28;20232;-79
2022/11/07 09:44:44;;;;;;;29.83;18.73;;;12.20;99.90;;;;;;5054610;28;20939;-78
2022/11/07 09:47:37;;;;;;;27.90;19.67;;;12.30;99.90;;;;;;5058888;28;20235;-75
2022/11/07 09:50:31;;;;;;;26.77;18.58;;;12.30;99.90;;;;;;5069173;28;20220;-78
2022/11/07 09:53:30;;;;;;;28.20;18.83;;;12.10;99.90;;;;;;5055197;28;20258;-77
2022/11/07 09:56:19;;;;;;;25.73;18.10;;;12.10;99.90;;;;;;5055895;28;20228;-78
2022/11/07 09:59:14;;;;;;;28.35;17.70;;;12.10;99.90;;;;;;5057633;28;20668;-75
2022/11/07 10:02:04;;;;;;;25.27;17.60;;;12.10;99.90;;;;;;5056220;28;20224;-78
2022/11/07 10:04:58;;;;;;;25.98;17.67;;;12.20;99.90;;;;;;5061953;28;20707;-74
2022/11/07 10:07:57;;;;;;;26.77;18.20;;;12.20;99.90;;;;;;5059156;28;20265;-76
2022/11/07 10:10:51;;;;;;;22.23;15.65;;;12.20;99.90;;;;;;5077497;28;20228;-76
2022/11/07 10:13:54;;;;;;;23.33;15.88;;;12.30;99.90;;;;;;5063126;28;20659;-76
2022/11/07 10:16:55;;;;;;;23.42;15.10;;;12.30;99.90;;;;;;5064084;28;20242;-75
2022/11/07 10:20:03;;;;;;;22.17;14.90;;;12.40;99.90;;;;;;5070598;28;20219;-79
2022/11/07 10:23:03;;;;;;;27.27;15.10;;;12.40;99.90;;;;;;5079260;28;20227;-75
2022/11/07 10:25:59;;;;;;;24.00;16.15;;;12.40;99.90;;;;;;5068213;28;20238;-79
2022/11/07 10:28:53;;;;;;;23.10;15.82;;;12.50;99.90;;;;;;5045329;28;20227;-77
2022/11/07 10:31:46;;;;;;;23.15;14.50;;;12.50;99.90;;;;;;5051272;28;20248;-77
2022/11/07 10:34:37;;;;;;;21.73;14.32;;;12.60;99.90;;;;;;5069165;28;20256;-76
2022/11/07 10:37:27;;;;;;;23.88;14.85;;;12.50;99.90;;;;;;5076647;28;20216;-77
2022/11/07 10:40:20;;;;;;;23.20;14.73;;;12.50;99.90;;;;;;5074575;28;20216;-78
2022/11/07 10:43:25;;;;;;;20.58;14.50;;;12.60;99.90;;;;;;5078691;28;20227;-76
2022/11/07 10:46:17;;;;;;;23.30;14.25;;;12.50;99.90;;;;;;5062541;28;20215;-77
2022/11/07 10:49:19;;;;;;;21.95;14.23;;;12.50;99.90;;;;;;5039818;28;20749;-76
2022/11/07 10:52:10;;;;;;;23.90;14.13;;;12.40;99.90;;;;;;5060483;28;20215;-76
2022/11/07 10:55:07;;;;;;;22.92;14.77;;;12.50;99.90;;;;;;5052451;28;20269;-77
2022/11/07 10:57:59;;;;;;;21.05;13.63;;;12.60;99.90;;;;;;5054512;28;21140;-76
2022/11/07 11:01:02;;;;;;;23.40;14.05;;;12.40;99.90;;;;;;5052636;28;21017;-76
2022/11/07 11:03:51;;;;;;;20.35;13.63;;;12.50;99.90;;;;;;5060385;28;20432;-74
2022/11/07 11:06:40;;;;;;;21.05;13.65;;;12.50;99.90;;;;;;5076895;28;20227;-76
2022/11/07 11:09:32;;;;;;;20.35;13.70;;;12.50;99.90;;;;;;5075796;28;20235;-74
2022/11/07 11:12:26;;;;;;;19.60;12.23;;;12.40;99.90;;;;;;5064359;28;20223;-78
2022/11/07 11:15:16;;;;;;;21.30;13.10;;;12.50;99.90;;;;;;5059584;28;20234;-77
2022/11/07 11:18:07;;;;;;;18.60;13.02;;;12.60;99.90;;;;;;5076175;28;20250;-77
2022/11/07 11:21:00;;;;;;;21.98;13.20;;;12.60;99.90;;;;;;5061768;28;20223;-76
2022/11/07 11:23:49;;;;;;;23.27;13.45;;;12.60;99.90;;;;;;5061427;28;20219;-76
2022/11/07 11:26:42;;;;;;;18.77;12.52;;;12.70;99.90;;;;;;5064400;28;20336;-76
2022/11/07 11:29:40;;;;;;;22.17;13.30;;;12.70;99.90;;;;;;5032313;28;20790;-77
2022/11/07 11:32:34;;;;;;;18.00;12.88;;;12.70;99.90;;;;;;5052611;28;20228;-76
2022/11/07 11:35:34;;;;;;;20.38;12.80;;;12.70;99.90;;;;;;5064470;28;20238;-76
2022/11/07 11:38:35;;;;;;;16.05;11.40;;;12.80;99.90;;;;;;5039869;28;20548;-76
2022/11/07 11:41:31;;;;;;;20.23;11.98;;;12.80;99.90;;;;;;5065707;28;20212;-77
2022/11/07 11:44:23;;;;;;;16.23;10.90;;;12.80;99.90;;;;;;5046136;28;20220;-77
2022/11/07 11:47:21;;;;;;;19.15;11.15;;;12.90;99.90;;;;;;5056542;28;20239;-76
2022/11/07 11:50:15;;;;;;;16.13;11.38;;;12.90;99.90;;;;;;5055517;28;20323;-76
2022/11/07 11:53:04;;;;;;;16.17;10.32;;;13.00;99.90;;;;;;5060871;28;20229;-77
2022/11/07 11:56:02;;;;;;;19.17;11.25;;;13.00;99.90;;;;;;5068228;28;20223;-75
2022/11/07 11:59:07;;;;;;;19.52;12.20;;;13.00;99.90;;;;;;5066500;28;20789;-74
2022/11/07 12:02:05;;;;;;;15.95;10.30;;;13.10;99.90;;;;;;5056421;28;21016;-75
2022/11/07 12:05:02;;;;;;;16.95;10.38;;;13.00;99.90;;;;;;5056324;28;20242;-75
2022/11/07 12:07:58;;;;;;;18.20;10.15;;;13.00;99.90;;;;;;5035378;28;20224;-74
2022/11/07 12:10:54;;;;;;;17.77;10.25;;;12.90;99.90;;;;;;5042799;28;20224;-75
2022/11/07 12:13:52;;;;;;;14.40;10.35;;;12.90;99.90;;;;;;5038350;28;20541;-75
2022/11/07 12:16:51;;;;;;;15.73;9.88;;;12.80;99.90;;;;;;5045314;28;20758;-75
2022/11/07 12:19:46;;;;;;;14.88;10.13;;;12.80;99.90;;;;;;5043465;28;20224;-75
2022/11/07 12:22:52;;;;;;;18.05;10.93;;;12.80;99.90;;;;;;5046885;28;21550;-76
2022/11/07 12:25:45;;;;;;;20.92;11.10;;;12.80;99.90;;;;;;5042916;28;20337;-75
2022/11/07 12:28:45;;;;;;;20.55;12.05;;;12.80;99.90;;;;;;5047474;28;20231;-76
2022/11/07 12:31:43;;;;;;;16.20;10.23;;;12.80;99.90;;;;;;5054913;28;20755;-75
2022/11/07 12:34:45;;;;;;;14.30;9.57;;;12.90;99.90;;;;;;5027911;28;20220;-76
2022/11/07 12:38:02;;;;;;;15.70;9.70;;;12.90;99.90;;;;;;5055977;28;20233;-76
2022/11/07 12:41:01;;;;;;;14.57;9.50;;;12.90;99.90;;;;;;5052470;28;20622;-75
2022/11/07 12:44:00;;;;;;;16.35;9.88;;;12.80;99.90;;;;;;5039524;28;20235;-75
2022/11/07 12:46:52;;;;;;;13.98;8.88;;;12.70;99.90;;;;;;5039888;28;20240;-75
2022/11/07 12:50:00;;;;;;;13.68;8.82;;;12.70;99.90;;;;;;5048397;28;20246;-75
2022/11/07 12:53:12;;;;;;;17.23;9.73;;;12.60;99.90;;;;;;5043560;28;20747;-75
2022/11/07 12:56:08;;;;;;;13.15;8.73;;;12.60;99.90;;;;;;5061909;28;20216;-75
2022/11/07 12:58:57;;;;;;;13.60;8.77;;;12.70;99.90;;;;;;5041816;28;20220;-76
2022/11/07 13:01:54;;;;;;;17.35;8.70;;;12.90;99.90;;;;;;5046734;28;20884;-77
2022/11/07 13:04:50;;;;;;;16.92;9.15;;;12.90;99.90;;;;;;5063358;28;20581;-77
2022/11/07 13:07:45;;;;;;;13.10;8.93;;;12.80;99.90;;;;;;5034342;28;20217;-76
2022/11/07 13:10:43;;;;;;;13.88;8.80;;;12.80;99.90;;;;;;5023680;28;20242;-75
2022/11/07 13:13:43;;;;;;;12.05;8.85;;;12.60;99.90;;;;;;5056294;28;20216;-74
2022/11/07 13:16:35;;;;;;;12.15;9.00;;;12.60;99.90;;;;;;5045088;28;20224;-76
2022/11/07 13:19:30;;;;;;;14.27;9.02;;;12.60;99.90;;;;;;5063439;28;20397;-74
2022/11/07 13:22:24;;;;;;;14.80;9.32;;;12.60;99.90;;;;;;5061392;28;20658;-73
2022/11/07 13:25:27;;;;;;;15.25;9.48;;;12.60;99.90;;;;;;5048126;28;20269;-75
2022/11/07 13:28:36;;;;;;;15.45;9.15;;;12.50;99.90;;;;;;5060660;28;20299;-78
2022/11/07 13:31:33;;;;;;;17.42;10.48;;;12.40;99.90;;;;;;5058651;28;20224;-76
2022/11/07 13:34:25;;;;;;;15.32;9.57;;;12.60;99.90;;;;;;5043184;28;20223;-75
2022/11/07 13:37:19;;;;;;;16.88;9.55;;;12.60;99.90;;;;;;5045179;28;20224;-76
2022/11/07 13:40:21;;;;;;;15.00;9.48;;;12.60;99.90;;;;;;5043742;28;20801;-76
2022/11/07 13:43:15;;;;;;;15.10;9.70;;;12.70;99.90;;;;;;5049268;28;20225;-79
2022/11/07 13:46:08;;;;;;;16.85;9.60;;;12.60;99.90;;;;;;5045672;28;20223;-75
2022/11/07 13:49:00;;;;;;;16.83;9.23;;;12.60;99.90;;;;;;5056791;28;20236;-76
2022/11/07 13:51:51;;;;;;;12.60;9.35;;;12.70;99.90;;;;;;5033631;28;20224;-78
2022/11/07 13:54:49;;;;;;;14.68;9.95;;;12.70;99.90;;;;;;5038753;28;20231;-77
2022/11/07 13:57:41;;;;;;;16.90;9.63;;;12.70;99.90;;;;;;5042013;28;20219;-77
2022/11/07 14:00:32;;;;;;;15.00;10.13;;;12.60;99.90;;;;;;5042778;28;20216;-76
2022/11/07 14:03:28;;;;;;;17.17;8.82;;;12.70;99.90;;;;;;5054430;28;20352;-76
2022/11/07 14:06:17;;;;;;;15.60;9.52;;;12.70;99.90;;;;;;5064319;28;20228;-76
2022/11/07 14:09:06;;;;;;;14.18;9.23;;;12.70;99.90;;;;;;5076333;28;20235;-82
2022/11/07 14:11:56;;;;;;;13.40;9.45;;;12.80;99.90;;;;;;5077242;28;21974;-78
2022/11/07 14:14:45;;;;;;;14.35;8.75;;;12.70;99.90;;;;;;5074845;28;20931;-82
2022/11/07 14:17:36;;;;;;;13.07;9.15;;;12.60;99.90;;;;;;5056179;28;20270;-81
2022/11/07 14:20:26;;;;;;;15.50;8.10;;;12.60;99.90;;;;;;5075759;28;20340;-78
2022/11/07 14:23:16;;;;;;;12.55;8.60;;;12.60;99.90;;;;;;5076013;28;20227;-83
2022/11/07 14:26:18;;;;;;;12.32;8.18;;;12.50;99.90;;;;;;5071031;28;20230;-85
2022/11/07 14:29:06;;;;;;;12.25;7.82;;;12.50;99.90;;;;;;5069064;28;20223;-83
2022/11/07 14:32:00;;;;;;;12.55;7.78;;;12.50;99.90;;;;;;5062393;28;20223;-84
2022/11/07 14:34:52;;;;;;;12.38;8.38;;;12.40;99.90;;;;;;5077093;28;20219;-84
2022/11/07 14:37:42;;;;;;;9.73;7.47;;;12.40;99.90;;;;;;5075087;28;20689;-82
2022/11/07 14:40:31;;;;;;;10.15;7.35;;;12.40;99.90;;;;;;5072203;28;20250;-81
2022/11/07 14:43:23;;;;;;;18.52;7.72;;;12.40;99.90;;;;;;5064613;28;20220;-79
2022/11/07 14:46:17;;;;;;;11.32;8.10;;;12.40;99.90;;;;;;5078555;28;20223;-82
2022/11/07 14:49:07;;;;;;;15.65;8.25;;;12.50;99.90;;;;;;5061513;28;20746;-82
2022/11/07 14:51:56;;;;;;;12.15;7.78;;;12.50;99.90;;;;;;5076162;28;20717;-83